sensor_id;sensor_type;location;lat;lon;timestamp;pressure;altitude;pressure_sealevel;temperature
25514;BMP180;48128;54.242;10.280;2023-11-21T00:01:16;100705.00;;;6.90
25514;BMP180;48128;54.242;10.280;2023-11-21T00:03:44;100717.00;;;6.90
25514;BMP180;48128;54.242;10.280;2023-11-21T00:06:11;100709.00;;;6.90
25514;BMP180;48128;54.242;10.280;2023-11-21T00:08:38;100719.00;;;6.80
25514;BMP180;48128;54.242;10.280;2023-11-21T00:11:05;100713.00;;;6.80
25514;BMP180;48128;54.242;10.280;2023-11-21T00:13:32;100713.00;;;6.80
25514;BMP180;48128;54.242;10.280;2023-11-21T00:15:59;100716.00;;;6.80
25514;BMP180;48128;54.242;10.280;2023-11-21T00:18:26;100714.00;;;6.80
25514;BMP180;48128;54.242;10.280;2023-11-21T00:20:53;100724.00;;;6.80
25514;BMP180;48128;54.242;10.280;2023-11-21T00:23:20;100725.00;;;6.80
25514;BMP180;48128;54.242;10.280;2023-11-21T00:25:47;100715.00;;;6.80
25514;BMP180;48128;54.242;10.280;2023-11-21T00:28:14;100710.00;;;6.80
25514;BMP180;48128;54.242;10.280;2023-11-21T00:30:41;100711.00;;;6.70
25514;BMP180;48128;54.242;10.280;2023-11-21T00:33:08;100720.00;;;6.70
25514;BMP180;48128;54.242;10.280;2023-11-21T00:35:36;100715.00;;;6.70
25514;BMP180;48128;54.242;10.280;2023-11-21T00:38:02;100720.00;;;6.70
25514;BMP180;48128;54.242;10.280;2023-11-21T00:40:30;100729.00;;;6.70
25514;BMP180;48128;54.242;10.280;2023-11-21T00:42:58;100730.00;;;6.70
25514;BMP180;48128;54.242;10.280;2023-11-21T00:45:25;100726.00;;;6.70
25514;BMP180;48128;54.242;10.280;2023-11-21T00:47:52;100731.00;;;6.70
25514;BMP180;48128;54.242;10.280;2023-11-21T00:50:19;100729.00;;;6.70
25514;BMP180;48128;54.242;10.280;2023-11-21T00:52:49;100740.00;;;6.70
25514;BMP180;48128;54.242;10.280;2023-11-21T00:55:18;100720.00;;;6.70
25514;BMP180;48128;54.242;10.280;2023-11-21T00:57:45;100731.00;;;6.70
25514;BMP180;48128;54.242;10.280;2023-11-21T01:00:12;100738.00;;;6.70
25514;BMP180;48128;54.242;10.280;2023-11-21T01:02:44;100734.00;;;6.70
25514;BMP180;48128;54.242;10.280;2023-11-21T01:05:14;100744.00;;;6.70
25514;BMP180;48128;54.242;10.280;2023-11-21T01:07:42;100755.00;;;6.70
25514;BMP180;48128;54.242;10.280;2023-11-21T01:10:09;100743.00;;;6.70
25514;BMP180;48128;54.242;10.280;2023-11-21T01:12:38;100754.00;;;6.70
25514;BMP180;48128;54.242;10.280;2023-11-21T01:15:08;100749.00;;;6.70
25514;BMP180;48128;54.242;10.280;2023-11-21T01:17:40;100761.00;;;6.70
25514;BMP180;48128;54.242;10.280;2023-11-21T01:20:08;100761.00;;;6.70
25514;BMP180;48128;54.242;10.280;2023-11-21T01:22:40;100771.00;;;6.70
25514;BMP180;48128;54.242;10.280;2023-11-21T01:25:07;100777.00;;;6.70
25514;BMP180;48128;54.242;10.280;2023-11-21T01:27:34;100780.00;;;6.70
25514;BMP180;48128;54.242;10.280;2023-11-21T01:30:02;100787.00;;;6.70
25514;BMP180;48128;54.242;10.280;2023-11-21T01:32:29;100787.00;;;6.70
25514;BMP180;48128;54.242;10.280;2023-11-21T01:34:56;100789.00;;;6.70
25514;BMP180;48128;54.242;10.280;2023-11-21T01:37:23;100783.00;;;6.70
25514;BMP180;48128;54.242;10.280;2023-11-21T01:39:51;100797.00;;;6.70
25514;BMP180;48128;54.242;10.280;2023-11-21T01:42:18;100804.00;;;6.60
25514;BMP180;48128;54.242;10.280;2023-11-21T01:44:45;100795.00;;;6.60
25514;BMP180;48128;54.242;10.280;2023-11-21T01:47:13;100793.00;;;6.60
25514;BMP180;48128;54.242;10.280;2023-11-21T01:49:40;100797.00;;;6.60
25514;BMP180;48128;54.242;10.280;2023-11-21T01:52:07;100787.00;;;6.60
25514;BMP180;48128;54.242;10.280;2023-11-21T01:54:34;100791.00;;;6.60
25514;BMP180;48128;54.242;10.280;2023-11-21T01:57:04;100790.00;;;6.60
25514;BMP180;48128;54.242;10.280;2023-11-21T01:59:37;100786.00;;;6.60
25514;BMP180;48128;54.242;10.280;2023-11-21T02:02:05;100794.00;;;6.50
25514;BMP180;48128;54.242;10.280;2023-11-21T02:04:33;100795.00;;;6.50
25514;BMP180;48128;54.242;10.280;2023-11-21T02:07:00;100794.00;;;6.50
25514;BMP180;48128;54.242;10.280;2023-11-21T02:09:27;100801.00;;;6.50
25514;BMP180;48128;54.242;10.280;2023-11-21T02:11:55;100798.00;;;6.50
25514;BMP180;48128;54.242;10.280;2023-11-21T02:14:27;100804.00;;;6.50
25514;BMP180;48128;54.242;10.280;2023-11-21T02:16:55;100805.00;;;6.50
25514;BMP180;48128;54.242;10.280;2023-11-21T02:19:24;100812.00;;;6.50
25514;BMP180;48128;54.242;10.280;2023-11-21T02:21:57;100818.00;;;6.50
25514;BMP180;48128;54.242;10.280;2023-11-21T02:24:29;100811.00;;;6.50
25514;BMP180;48128;54.242;10.280;2023-11-21T02:26:57;100822.00;;;6.50
25514;BMP180;48128;54.242;10.280;2023-11-21T02:29:24;100823.00;;;6.50
25514;BMP180;48128;54.242;10.280;2023-11-21T02:31:55;100834.00;;;6.50
25514;BMP180;48128;54.242;10.280;2023-11-21T02:34:22;100833.00;;;6.50
25514;BMP180;48128;54.242;10.280;2023-11-21T02:36:50;100838.00;;;6.50
25514;BMP180;48128;54.242;10.280;2023-11-21T02:39:17;100836.00;;;6.50
25514;BMP180;48128;54.242;10.280;2023-11-21T02:41:44;100844.00;;;6.50
25514;BMP180;48128;54.242;10.280;2023-11-21T02:44:11;100843.00;;;6.50
25514;BMP180;48128;54.242;10.280;2023-11-21T02:46:38;100839.00;;;6.50
25514;BMP180;48128;54.242;10.280;2023-11-21T02:49:06;100838.00;;;6.50
25514;BMP180;48128;54.242;10.280;2023-11-21T02:51:33;100839.00;;;6.50
25514;BMP180;48128;54.242;10.280;2023-11-21T02:54:00;100847.00;;;6.50
25514;BMP180;48128;54.242;10.280;2023-11-21T02:56:29;100851.00;;;6.50
25514;BMP180;48128;54.242;10.280;2023-11-21T02:58:56;100861.00;;;6.50
25514;BMP180;48128;54.242;10.280;2023-11-21T03:01:23;100853.00;;;6.50
25514;BMP180;48128;54.242;10.280;2023-11-21T03:03:51;100852.00;;;6.40
25514;BMP180;48128;54.242;10.280;2023-11-21T03:06:19;100861.00;;;6.40
25514;BMP180;48128;54.242;10.280;2023-11-21T03:08:46;100868.00;;;6.40
25514;BMP180;48128;54.242;10.280;2023-11-21T03:11:13;100875.00;;;6.40
25514;BMP180;48128;54.242;10.280;2023-11-21T03:13:41;100881.00;;;6.40
25514;BMP180;48128;54.242;10.280;2023-11-21T03:16:09;100872.00;;;6.40
25514;BMP180;48128;54.242;10.280;2023-11-21T03:18:38;100877.00;;;6.30
25514;BMP180;48128;54.242;10.280;2023-11-21T03:21:05;100893.00;;;6.30
25514;BMP180;48128;54.242;10.280;2023-11-21T03:23:35;100898.00;;;6.30
25514;BMP180;48128;54.242;10.280;2023-11-21T03:26:05;100894.00;;;6.30
25514;BMP180;48128;54.242;10.280;2023-11-21T03:28:35;100897.00;;;6.30
25514;BMP180;48128;54.242;10.280;2023-11-21T03:31:02;100898.00;;;6.20
25514;BMP180;48128;54.242;10.280;2023-11-21T03:33:29;100906.00;;;6.20
25514;BMP180;48128;54.242;10.280;2023-11-21T03:35:58;100908.00;;;6.20
25514;BMP180;48128;54.242;10.280;2023-11-21T03:38:25;100923.00;;;6.20
25514;BMP180;48128;54.242;10.280;2023-11-21T03:40:52;100913.00;;;6.30
25514;BMP180;48128;54.242;10.280;2023-11-21T03:43:18;100936.00;;;6.20
25514;BMP180;48128;54.242;10.280;2023-11-21T03:45:45;100922.00;;;6.30
25514;BMP180;48128;54.242;10.280;2023-11-21T03:48:12;100938.00;;;6.30
25514;BMP180;48128;54.242;10.280;2023-11-21T03:50:42;100931.00;;;6.30
25514;BMP180;48128;54.242;10.280;2023-11-21T03:53:09;100928.00;;;6.30
25514;BMP180;48128;54.242;10.280;2023-11-21T03:55:36;100940.00;;;6.30
25514;BMP180;48128;54.242;10.280;2023-11-21T03:58:03;100936.00;;;6.30
25514;BMP180;48128;54.242;10.280;2023-11-21T04:00:30;100938.00;;;6.30
25514;BMP180;48128;54.242;10.280;2023-11-21T04:02:58;100944.00;;;6.20
25514;BMP180;48128;54.242;10.280;2023-11-21T04:05:25;100943.00;;;6.20
25514;BMP180;48128;54.242;10.280;2023-11-21T04:07:52;100939.00;;;6.20
25514;BMP180;48128;54.242;10.280;2023-11-21T04:10:19;100955.00;;;6.20
25514;BMP180;48128;54.242;10.280;2023-11-21T04:12:46;100950.00;;;6.20
25514;BMP180;48128;54.242;10.280;2023-11-21T04:15:13;100943.00;;;6.20
25514;BMP180;48128;54.242;10.280;2023-11-21T04:17:41;100952.00;;;6.20
25514;BMP180;48128;54.242;10.280;2023-11-21T04:20:09;100956.00;;;6.20
25514;BMP180;48128;54.242;10.280;2023-11-21T04:22:38;100947.00;;;6.20
25514;BMP180;48128;54.242;10.280;2023-11-21T04:25:14;100960.00;;;6.20
25514;BMP180;48128;54.242;10.280;2023-11-21T04:27:43;100971.00;;;6.20
25514;BMP180;48128;54.242;10.280;2023-11-21T04:30:14;100964.00;;;6.20
25514;BMP180;48128;54.242;10.280;2023-11-21T04:32:41;100964.00;;;6.20
25514;BMP180;48128;54.242;10.280;2023-11-21T04:35:09;100969.00;;;6.20
25514;BMP180;48128;54.242;10.280;2023-11-21T04:37:36;100982.00;;;6.20
25514;BMP180;48128;54.242;10.280;2023-11-21T04:40:04;100979.00;;;6.20
25514;BMP180;48128;54.242;10.280;2023-11-21T04:42:37;100981.00;;;6.20
25514;BMP180;48128;54.242;10.280;2023-11-21T04:45:05;100990.00;;;6.20
25514;BMP180;48128;54.242;10.280;2023-11-21T04:47:36;100981.00;;;6.20
25514;BMP180;48128;54.242;10.280;2023-11-21T04:50:05;100995.00;;;6.20
25514;BMP180;48128;54.242;10.280;2023-11-21T04:52:32;100985.00;;;6.20
25514;BMP180;48128;54.242;10.280;2023-11-21T04:55:00;101009.00;;;6.20
25514;BMP180;48128;54.242;10.280;2023-11-21T04:57:53;101002.00;;;6.20
25514;BMP180;48128;54.242;10.280;2023-11-21T05:00:46;101005.00;;;6.20
25514;BMP180;48128;54.242;10.280;2023-11-21T05:06:45;101019.00;;;6.20
25514;BMP180;48128;54.242;10.280;2023-11-21T05:09:12;101027.00;;;6.30
25514;BMP180;48128;54.242;10.280;2023-11-21T05:11:40;101033.00;;;6.30
25514;BMP180;48128;54.242;10.280;2023-11-21T05:14:07;101026.00;;;6.30
25514;BMP180;48128;54.242;10.280;2023-11-21T05:16:35;101042.00;;;6.30
25514;BMP180;48128;54.242;10.280;2023-11-21T05:19:03;101036.00;;;6.30
25514;BMP180;48128;54.242;10.280;2023-11-21T05:21:30;101043.00;;;6.30
25514;BMP180;48128;54.242;10.280;2023-11-21T05:24:00;101044.00;;;6.30
25514;BMP180;48128;54.242;10.280;2023-11-21T05:26:27;101065.00;;;6.30
25514;BMP180;48128;54.242;10.280;2023-11-21T05:28:54;101065.00;;;6.30
25514;BMP180;48128;54.242;10.280;2023-11-21T05:31:21;101074.00;;;6.30
25514;BMP180;48128;54.242;10.280;2023-11-21T05:33:48;101088.00;;;6.30
25514;BMP180;48128;54.242;10.280;2023-11-21T05:36:15;101091.00;;;6.30
25514;BMP180;48128;54.242;10.280;2023-11-21T05:38:42;101085.00;;;6.30
25514;BMP180;48128;54.242;10.280;2023-11-21T05:41:09;101076.00;;;6.30
25514;BMP180;48128;54.242;10.280;2023-11-21T05:43:37;101088.00;;;6.30
25514;BMP180;48128;54.242;10.280;2023-11-21T05:46:05;101093.00;;;6.30
25514;BMP180;48128;54.242;10.280;2023-11-21T05:48:33;101093.00;;;6.30
25514;BMP180;48128;54.242;10.280;2023-11-21T05:51:00;101100.00;;;6.30
25514;BMP180;48128;54.242;10.280;2023-11-21T05:53:34;101102.00;;;6.30
25514;BMP180;48128;54.242;10.280;2023-11-21T05:56:02;101110.00;;;6.30
25514;BMP180;48128;54.242;10.280;2023-11-21T05:58:30;101117.00;;;6.30
25514;BMP180;48128;54.242;10.280;2023-11-21T06:00:57;101118.00;;;6.30
25514;BMP180;48128;54.242;10.280;2023-11-21T06:03:24;101133.00;;;6.20
25514;BMP180;48128;54.242;10.280;2023-11-21T06:05:52;101124.00;;;6.30
25514;BMP180;48128;54.242;10.280;2023-11-21T06:08:19;101143.00;;;6.20
25514;BMP180;48128;54.242;10.280;2023-11-21T06:10:45;101145.00;;;6.20
25514;BMP180;48128;54.242;10.280;2023-11-21T06:13:22;101149.00;;;6.30
25514;BMP180;48128;54.242;10.280;2023-11-21T06:15:53;101147.00;;;6.20
25514;BMP180;48128;54.242;10.280;2023-11-21T06:18:20;101160.00;;;6.20
25514;BMP180;48128;54.242;10.280;2023-11-21T06:20:47;101157.00;;;6.20
25514;BMP180;48128;54.242;10.280;2023-11-21T06:23:14;101154.00;;;6.20
25514;BMP180;48128;54.242;10.280;2023-11-21T06:25:41;101151.00;;;6.20
25514;BMP180;48128;54.242;10.280;2023-11-21T06:28:08;101154.00;;;6.10
25514;BMP180;48128;54.242;10.280;2023-11-21T06:30:35;101167.00;;;6.10
25514;BMP180;48128;54.242;10.280;2023-11-21T06:33:02;101164.00;;;6.10
25514;BMP180;48128;54.242;10.280;2023-11-21T06:35:29;101170.00;;;6.10
25514;BMP180;48128;54.242;10.280;2023-11-21T06:37:59;101176.00;;;6.10
25514;BMP180;48128;54.242;10.280;2023-11-21T06:40:26;101184.00;;;6.10
25514;BMP180;48128;54.242;10.280;2023-11-21T06:42:53;101187.00;;;6.10
25514;BMP180;48128;54.242;10.280;2023-11-21T06:45:20;101200.00;;;6.10
25514;BMP180;48128;54.242;10.280;2023-11-21T06:47:48;101195.00;;;6.10
25514;BMP180;48128;54.242;10.280;2023-11-21T06:50:16;101212.00;;;6.10
25514;BMP180;48128;54.242;10.280;2023-11-21T06:52:43;101210.00;;;6.10
25514;BMP180;48128;54.242;10.280;2023-11-21T06:55:10;101202.00;;;6.10
25514;BMP180;48128;54.242;10.280;2023-11-21T06:57:37;101216.00;;;6.10
25514;BMP180;48128;54.242;10.280;2023-11-21T07:00:05;101224.00;;;6.10
25514;BMP180;48128;54.242;10.280;2023-11-21T07:02:36;101229.00;;;6.10
25514;BMP180;48128;54.242;10.280;2023-11-21T07:05:03;101238.00;;;6.10
25514;BMP180;48128;54.242;10.280;2023-11-21T07:07:30;101239.00;;;6.10
25514;BMP180;48128;54.242;10.280;2023-11-21T07:09:58;101226.00;;;6.10
25514;BMP180;48128;54.242;10.280;2023-11-21T07:12:30;101225.00;;;6.00
25514;BMP180;48128;54.242;10.280;2023-11-21T07:14:58;101233.00;;;6.10
25514;BMP180;48128;54.242;10.280;2023-11-21T07:17:25;101250.00;;;6.10
25514;BMP180;48128;54.242;10.280;2023-11-21T07:19:52;101245.00;;;6.10
25514;BMP180;48128;54.242;10.280;2023-11-21T07:22:19;101254.00;;;6.10
25514;BMP180;48128;54.242;10.280;2023-11-21T07:24:49;101259.00;;;6.20
25514;BMP180;48128;54.242;10.280;2023-11-21T07:27:19;101274.00;;;6.20
25514;BMP180;48128;54.242;10.280;2023-11-21T07:29:46;101266.00;;;6.20
25514;BMP180;48128;54.242;10.280;2023-11-21T07:32:15;101270.00;;;6.20
25514;BMP180;48128;54.242;10.280;2023-11-21T07:34:42;101259.00;;;6.20
25514;BMP180;48128;54.242;10.280;2023-11-21T07:37:09;101275.00;;;6.20
25514;BMP180;48128;54.242;10.280;2023-11-21T07:39:36;101276.00;;;6.20
25514;BMP180;48128;54.242;10.280;2023-11-21T07:42:03;101275.00;;;6.20
25514;BMP180;48128;54.242;10.280;2023-11-21T07:44:31;101278.00;;;6.20
25514;BMP180;48128;54.242;10.280;2023-11-21T07:46:59;101285.00;;;6.30
25514;BMP180;48128;54.242;10.280;2023-11-21T07:49:26;101293.00;;;6.30
25514;BMP180;48128;54.242;10.280;2023-11-21T07:51:53;101301.00;;;6.20
25514;BMP180;48128;54.242;10.280;2023-11-21T07:54:20;101298.00;;;6.20
25514;BMP180;48128;54.242;10.280;2023-11-21T07:56:48;101292.00;;;6.20
25514;BMP180;48128;54.242;10.280;2023-11-21T07:59:15;101301.00;;;6.20
25514;BMP180;48128;54.242;10.280;2023-11-21T08:01:42;101298.00;;;6.20
25514;BMP180;48128;54.242;10.280;2023-11-21T08:04:10;101303.00;;;6.20
25514;BMP180;48128;54.242;10.280;2023-11-21T08:06:37;101302.00;;;6.20
25514;BMP180;48128;54.242;10.280;2023-11-21T08:09:06;101303.00;;;6.10
25514;BMP180;48128;54.242;10.280;2023-11-21T08:11:35;101304.00;;;6.10
25514;BMP180;48128;54.242;10.280;2023-11-21T08:14:02;101309.00;;;6.10
25514;BMP180;48128;54.242;10.280;2023-11-21T08:16:29;101306.00;;;6.20
25514;BMP180;48128;54.242;10.280;2023-11-21T08:18:56;101320.00;;;6.30
25514;BMP180;48128;54.242;10.280;2023-11-21T08:21:23;101327.00;;;6.30
25514;BMP180;48128;54.242;10.280;2023-11-21T08:23:55;101334.00;;;6.40
25514;BMP180;48128;54.242;10.280;2023-11-21T08:26:23;101342.00;;;6.50
25514;BMP180;48128;54.242;10.280;2023-11-21T08:28:50;101358.00;;;6.60
25514;BMP180;48128;54.242;10.280;2023-11-21T08:31:26;101357.00;;;6.70
25514;BMP180;48128;54.242;10.280;2023-11-21T08:33:53;101364.00;;;6.70
25514;BMP180;48128;54.242;10.280;2023-11-21T08:36:22;101366.00;;;6.70
25514;BMP180;48128;54.242;10.280;2023-11-21T08:38:51;101373.00;;;6.80
25514;BMP180;48128;54.242;10.280;2023-11-21T08:41:21;101367.00;;;6.80
25514;BMP180;48128;54.242;10.280;2023-11-21T08:43:52;101382.00;;;6.80
25514;BMP180;48128;54.242;10.280;2023-11-21T08:46:41;101380.00;;;6.70
25514;BMP180;48128;54.242;10.280;2023-11-21T08:49:13;101375.00;;;6.80
25514;BMP180;48128;54.242;10.280;2023-11-21T08:51:43;101376.00;;;6.70
25514;BMP180;48128;54.242;10.280;2023-11-21T08:54:13;101383.00;;;6.70
25514;BMP180;48128;54.242;10.280;2023-11-21T08:56:41;101393.00;;;6.70
25514;BMP180;48128;54.242;10.280;2023-11-21T08:59:09;101403.00;;;6.70
25514;BMP180;48128;54.242;10.280;2023-11-21T09:01:36;101387.00;;;6.70
25514;BMP180;48128;54.242;10.280;2023-11-21T09:04:03;101406.00;;;6.70
25514;BMP180;48128;54.242;10.280;2023-11-21T09:06:31;101414.00;;;6.70
25514;BMP180;48128;54.242;10.280;2023-11-21T09:08:58;101420.00;;;6.70
25514;BMP180;48128;54.242;10.280;2023-11-21T09:11:25;101408.00;;;6.80
25514;BMP180;48128;54.242;10.280;2023-11-21T09:13:52;101419.00;;;6.80
25514;BMP180;48128;54.242;10.280;2023-11-21T09:16:19;101437.00;;;6.80
25514;BMP180;48128;54.242;10.280;2023-11-21T09:18:46;101436.00;;;6.90
25514;BMP180;48128;54.242;10.280;2023-11-21T09:21:13;101446.00;;;6.80
25514;BMP180;48128;54.242;10.280;2023-11-21T09:23:40;101473.00;;;6.80
25514;BMP180;48128;54.242;10.280;2023-11-21T09:26:08;101463.00;;;6.80
25514;BMP180;48128;54.242;10.280;2023-11-21T09:28:38;101460.00;;;6.80
25514;BMP180;48128;54.242;10.280;2023-11-21T09:31:06;101464.00;;;6.90
25514;BMP180;48128;54.242;10.280;2023-11-21T09:33:35;101473.00;;;6.90
25514;BMP180;48128;54.242;10.280;2023-11-21T09:36:02;101482.00;;;6.80
25514;BMP180;48128;54.242;10.280;2023-11-21T09:38:33;101483.00;;;6.90
25514;BMP180;48128;54.242;10.280;2023-11-21T09:41:02;101488.00;;;6.90
25514;BMP180;48128;54.242;10.280;2023-11-21T09:43:31;101466.00;;;7.00
25514;BMP180;48128;54.242;10.280;2023-11-21T09:46:02;101486.00;;;7.00
25514;BMP180;48128;54.242;10.280;2023-11-21T09:48:33;101502.00;;;7.00
25514;BMP180;48128;54.242;10.280;2023-11-21T09:51:00;101491.00;;;7.00
25514;BMP180;48128;54.242;10.280;2023-11-21T09:53:30;101494.00;;;7.00
25514;BMP180;48128;54.242;10.280;2023-11-21T09:55:58;101495.00;;;7.00
25514;BMP180;48128;54.242;10.280;2023-11-21T09:58:31;101510.00;;;7.00
25514;BMP180;48128;54.242;10.280;2023-11-21T10:01:19;101514.00;;;7.00
25514;BMP180;48128;54.242;10.280;2023-11-21T10:03:54;101528.00;;;7.00
25514;BMP180;48128;54.242;10.280;2023-11-21T10:06:23;101532.00;;;7.00
25514;BMP180;48128;54.242;10.280;2023-11-21T10:08:53;101526.00;;;7.00
25514;BMP180;48128;54.242;10.280;2023-11-21T10:11:25;101521.00;;;7.00
25514;BMP180;48128;54.242;10.280;2023-11-21T10:13:57;101539.00;;;7.00
25514;BMP180;48128;54.242;10.280;2023-11-21T10:16:26;101518.00;;;7.00
25514;BMP180;48128;54.242;10.280;2023-11-21T10:18:54;101555.00;;;7.00
25514;BMP180;48128;54.242;10.280;2023-11-21T10:21:40;101555.00;;;7.00
25514;BMP180;48128;54.242;10.280;2023-11-21T10:24:07;101559.00;;;6.90
25514;BMP180;48128;54.242;10.280;2023-11-21T10:26:38;101565.00;;;7.00
25514;BMP180;48128;54.242;10.280;2023-11-21T10:29:45;101553.00;;;7.00
25514;BMP180;48128;54.242;10.280;2023-11-21T10:32:14;101564.00;;;7.00
25514;BMP180;48128;54.242;10.280;2023-11-21T10:34:55;101541.00;;;7.00
25514;BMP180;48128;54.242;10.280;2023-11-21T10:37:41;101560.00;;;7.00
25514;BMP180;48128;54.242;10.280;2023-11-21T10:40:15;101553.00;;;7.00
25514;BMP180;48128;54.242;10.280;2023-11-21T10:42:42;101552.00;;;7.10
25514;BMP180;48128;54.242;10.280;2023-11-21T10:45:12;101551.00;;;7.10
25514;BMP180;48128;54.242;10.280;2023-11-21T10:47:42;101562.00;;;7.10
25514;BMP180;48128;54.242;10.280;2023-11-21T10:50:10;101568.00;;;7.10
25514;BMP180;48128;54.242;10.280;2023-11-21T10:52:44;101585.00;;;7.10
25514;BMP180;48128;54.242;10.280;2023-11-21T10:55:18;101579.00;;;7.10
25514;BMP180;48128;54.242;10.280;2023-11-21T10:57:51;101588.00;;;7.10
25514;BMP180;48128;54.242;10.280;2023-11-21T11:00:19;101593.00;;;7.10
25514;BMP180;48128;54.242;10.280;2023-11-21T11:02:51;101593.00;;;7.00
25514;BMP180;48128;54.242;10.280;2023-11-21T11:05:19;101574.00;;;7.00
25514;BMP180;48128;54.242;10.280;2023-11-21T11:07:48;101567.00;;;7.00
25514;BMP180;48128;54.242;10.280;2023-11-21T11:10:23;101564.00;;;6.90
25514;BMP180;48128;54.242;10.280;2023-11-21T11:12:53;101559.00;;;6.90
25514;BMP180;48128;54.242;10.280;2023-11-21T11:15:22;101546.00;;;6.80
25514;BMP180;48128;54.242;10.280;2023-11-21T11:17:50;101564.00;;;6.70
25514;BMP180;48128;54.242;10.280;2023-11-21T11:20:17;101564.00;;;6.70
25514;BMP180;48128;54.242;10.280;2023-11-21T11:28:38;101547.00;;;6.70
25514;BMP180;48128;54.242;10.280;2023-11-21T11:34:10;101552.00;;;6.60
25514;BMP180;48128;54.242;10.280;2023-11-21T11:37:01;101576.00;;;6.60
25514;BMP180;48128;54.242;10.280;2023-11-21T11:39:41;101581.00;;;6.50
25514;BMP180;48128;54.242;10.280;2023-11-21T11:42:14;101582.00;;;6.50
25514;BMP180;48128;54.242;10.280;2023-11-21T11:47:23;101562.00;;;6.40
25514;BMP180;48128;54.242;10.280;2023-11-21T11:50:03;101570.00;;;6.40
25514;BMP180;48128;54.242;10.280;2023-11-21T11:52:44;101556.00;;;6.40
25514;BMP180;48128;54.242;10.280;2023-11-21T11:55:15;101568.00;;;6.30
25514;BMP180;48128;54.242;10.280;2023-11-21T11:57:50;101566.00;;;6.30
25514;BMP180;48128;54.242;10.280;2023-11-21T12:00:22;101577.00;;;6.20
25514;BMP180;48128;54.242;10.280;2023-11-21T12:03:02;101566.00;;;6.20
25514;BMP180;48128;54.242;10.280;2023-11-21T12:05:33;101570.00;;;6.20
25514;BMP180;48128;54.242;10.280;2023-11-21T12:08:03;101569.00;;;6.20
25514;BMP180;48128;54.242;10.280;2023-11-21T12:10:34;101565.00;;;6.20
25514;BMP180;48128;54.242;10.280;2023-11-21T12:13:09;101567.00;;;6.10
25514;BMP180;48128;54.242;10.280;2023-11-21T12:15:37;101574.00;;;6.10
25514;BMP180;48128;54.242;10.280;2023-11-21T12:18:06;101590.00;;;6.10
25514;BMP180;48128;54.242;10.280;2023-11-21T12:20:33;101590.00;;;6.00
25514;BMP180;48128;54.242;10.280;2023-11-21T12:23:09;101602.00;;;5.90
25514;BMP180;48128;54.242;10.280;2023-11-21T12:25:38;101609.00;;;5.90
25514;BMP180;48128;54.242;10.280;2023-11-21T12:28:08;101600.00;;;5.80
25514;BMP180;48128;54.242;10.280;2023-11-21T12:30:36;101616.00;;;5.80
25514;BMP180;48128;54.242;10.280;2023-11-21T12:33:04;101616.00;;;5.80
25514;BMP180;48128;54.242;10.280;2023-11-21T12:35:35;101605.00;;;5.80
25514;BMP180;48128;54.242;10.280;2023-11-21T12:38:03;101602.00;;;5.80
25514;BMP180;48128;54.242;10.280;2023-11-21T12:40:36;101606.00;;;5.80
25514;BMP180;48128;54.242;10.280;2023-11-21T12:43:03;101614.00;;;5.80
25514;BMP180;48128;54.242;10.280;2023-11-21T12:45:32;101630.00;;;5.80
25514;BMP180;48128;54.242;10.280;2023-11-21T12:48:00;101638.00;;;5.80
25514;BMP180;48128;54.242;10.280;2023-11-21T12:50:31;101661.00;;;5.80
25514;BMP180;48128;54.242;10.280;2023-11-21T12:53:05;101646.00;;;5.80
25514;BMP180;48128;54.242;10.280;2023-11-21T12:55:33;101649.00;;;5.80
25514;BMP180;48128;54.242;10.280;2023-11-21T12:58:08;101663.00;;;5.80
25514;BMP180;48128;54.242;10.280;2023-11-21T13:00:48;101675.00;;;5.80
25514;BMP180;48128;54.242;10.280;2023-11-21T13:03:17;101682.00;;;5.80
25514;BMP180;48128;54.242;10.280;2023-11-21T13:05:48;101685.00;;;5.80
25514;BMP180;48128;54.242;10.280;2023-11-21T13:08:22;101691.00;;;5.70
25514;BMP180;48128;54.242;10.280;2023-11-21T13:10:56;101711.00;;;5.70
25514;BMP180;48128;54.242;10.280;2023-11-21T13:13:25;101691.00;;;5.70
25514;BMP180;48128;54.242;10.280;2023-11-21T13:15:57;101704.00;;;5.60
25514;BMP180;48128;54.242;10.280;2023-11-21T13:18:28;101704.00;;;5.60
25514;BMP180;48128;54.242;10.280;2023-11-21T13:20:56;101708.00;;;5.60
25514;BMP180;48128;54.242;10.280;2023-11-21T13:23:25;101705.00;;;5.60
25514;BMP180;48128;54.242;10.280;2023-11-21T13:25:53;101693.00;;;5.60
25514;BMP180;48128;54.242;10.280;2023-11-21T13:28:34;101697.00;;;5.60
25514;BMP180;48128;54.242;10.280;2023-11-21T13:31:03;101684.00;;;5.60
25514;BMP180;48128;54.242;10.280;2023-11-21T13:33:50;101677.00;;;5.60
25514;BMP180;48128;54.242;10.280;2023-11-21T13:36:23;101687.00;;;5.60
25514;BMP180;48128;54.242;10.280;2023-11-21T13:38:59;101679.00;;;5.60
25514;BMP180;48128;54.242;10.280;2023-11-21T13:41:31;101682.00;;;5.70
25514;BMP180;48128;54.242;10.280;2023-11-21T13:43:59;101670.00;;;5.70
25514;BMP180;48128;54.242;10.280;2023-11-21T13:46:44;101672.00;;;5.70
25514;BMP180;48128;54.242;10.280;2023-11-21T13:49:13;101680.00;;;5.70
25514;BMP180;48128;54.242;10.280;2023-11-21T13:51:45;101690.00;;;5.70
25514;BMP180;48128;54.242;10.280;2023-11-21T13:54:15;101693.00;;;5.60
25514;BMP180;48128;54.242;10.280;2023-11-21T13:56:42;101719.00;;;5.60
25514;BMP180;48128;54.242;10.280;2023-11-21T13:59:12;101748.00;;;5.60
25514;BMP180;48128;54.242;10.280;2023-11-21T14:01:52;101756.00;;;5.50
25514;BMP180;48128;54.242;10.280;2023-11-21T14:04:27;101762.00;;;5.50
25514;BMP180;48128;54.242;10.280;2023-11-21T14:06:57;101778.00;;;5.50
25514;BMP180;48128;54.242;10.280;2023-11-21T14:09:25;101779.00;;;5.50
25514;BMP180;48128;54.242;10.280;2023-11-21T14:12:00;101778.00;;;5.40
25514;BMP180;48128;54.242;10.280;2023-11-21T14:14:29;101776.00;;;5.40
25514;BMP180;48128;54.242;10.280;2023-11-21T14:16:57;101787.00;;;5.30
25514;BMP180;48128;54.242;10.280;2023-11-21T14:19:26;101770.00;;;5.20
25514;BMP180;48128;54.242;10.280;2023-11-21T14:21:59;101763.00;;;5.20
25514;BMP180;48128;54.242;10.280;2023-11-21T14:24:30;101753.00;;;5.10